Terminal Aerodrome Forecast
Issued by NWS

Home | Current Version | Previous Version | Text Only | Print | Product List | Glossary On
Versions: 1 2 3 4 5 6 7 8 9 10 11 12 13 14 15 16 17 18 19 20 21
000
FTUS43 KGRR 280540
TAFMKG
TAF
KMKG 280540Z 2806/2906 24010KT P6SM OVC028
     FM281000 23010KT P6SM OVC035
     FM290000 35004KT P6SM -RA OVC050
     FM290200 03004KT 6SM -RA OVC025=

USA.gov is the U.S. government's official web portal to all federal, state and local government web resources and services.